sensor_id;sensor_type;location;lat;lon;timestamp;P1;durP1;ratioP1;P2;durP2;ratioP2
79338;SDS011;74181;41.704;44.786;2024-02-21T00:01:14;9.27;;;2.90;;
79338;SDS011;74181;41.704;44.786;2024-02-21T00:03:41;6.80;;;2.70;;
79338;SDS011;74181;41.704;44.786;2024-02-21T00:06:08;6.95;;;3.20;;
79338;SDS011;74181;41.704;44.786;2024-02-21T00:08:34;5.97;;;2.80;;
79338;SDS011;74181;41.704;44.786;2024-02-21T00:11:00;6.38;;;2.83;;
79338;SDS011;74181;41.704;44.786;2024-02-21T00:13:26;5.70;;;2.47;;
79338;SDS011;74181;41.704;44.786;2024-02-21T00:15:52;7.25;;;2.70;;
79338;SDS011;74181;41.704;44.786;2024-02-21T00:18:19;5.82;;;2.75;;
79338;SDS011;74181;41.704;44.786;2024-02-21T00:20:45;6.33;;;2.80;;
79338;SDS011;74181;41.704;44.786;2024-02-21T00:23:11;7.40;;;3.10;;
79338;SDS011;74181;41.704;44.786;2024-02-21T00:25:37;7.35;;;2.88;;
79338;SDS011;74181;41.704;44.786;2024-02-21T00:28:03;7.03;;;2.92;;
79338;SDS011;74181;41.704;44.786;2024-02-21T00:30:31;7.80;;;3.13;;
79338;SDS011;74181;41.704;44.786;2024-02-21T00:32:57;6.27;;;2.60;;
79338;SDS011;74181;41.704;44.786;2024-02-21T00:35:24;7.18;;;2.80;;
79338;SDS011;74181;41.704;44.786;2024-02-21T00:37:51;7.13;;;2.60;;
79338;SDS011;74181;41.704;44.786;2024-02-21T00:40:17;8.48;;;2.95;;
79338;SDS011;74181;41.704;44.786;2024-02-21T00:42:46;6.10;;;2.70;;
79338;SDS011;74181;41.704;44.786;2024-02-21T00:45:13;5.83;;;2.70;;
79338;SDS011;74181;41.704;44.786;2024-02-21T00:47:39;6.32;;;2.95;;
79338;SDS011;74181;41.704;44.786;2024-02-21T00:50:05;6.88;;;2.88;;
79338;SDS011;74181;41.704;44.786;2024-02-21T00:52:33;6.53;;;2.40;;
79338;SDS011;74181;41.704;44.786;2024-02-21T00:54:59;6.53;;;2.72;;
79338;SDS011;74181;41.704;44.786;2024-02-21T00:57:26;6.50;;;2.63;;
79338;SDS011;74181;41.704;44.786;2024-02-21T00:59:52;5.43;;;2.40;;
79338;SDS011;74181;41.704;44.786;2024-02-21T01:02:18;6.97;;;2.92;;
79338;SDS011;74181;41.704;44.786;2024-02-21T01:04:44;6.93;;;2.90;;
79338;SDS011;74181;41.704;44.786;2024-02-21T01:07:10;8.30;;;2.90;;
79338;SDS011;74181;41.704;44.786;2024-02-21T01:09:36;5.97;;;2.47;;
79338;SDS011;74181;41.704;44.786;2024-02-21T01:12:03;6.22;;;2.83;;
79338;SDS011;74181;41.704;44.786;2024-02-21T01:14:29;7.70;;;3.00;;
79338;SDS011;74181;41.704;44.786;2024-02-21T01:16:55;5.72;;;2.60;;
79338;SDS011;74181;41.704;44.786;2024-02-21T01:19:21;6.43;;;2.90;;
79338;SDS011;74181;41.704;44.786;2024-02-21T01:21:47;6.63;;;2.80;;
79338;SDS011;74181;41.704;44.786;2024-02-21T01:24:13;6.57;;;2.80;;
79338;SDS011;74181;41.704;44.786;2024-02-21T01:26:40;6.78;;;2.97;;
79338;SDS011;74181;41.704;44.786;2024-02-21T01:29:06;7.15;;;2.60;;
79338;SDS011;74181;41.704;44.786;2024-02-21T01:31:32;6.55;;;2.67;;
79338;SDS011;74181;41.704;44.786;2024-02-21T01:33:59;5.80;;;2.70;;
79338;SDS011;74181;41.704;44.786;2024-02-21T01:36:25;6.07;;;2.55;;
79338;SDS011;74181;41.704;44.786;2024-02-21T01:38:51;6.63;;;2.85;;
79338;SDS011;74181;41.704;44.786;2024-02-21T01:41:17;7.63;;;2.63;;
79338;SDS011;74181;41.704;44.786;2024-02-21T01:43:43;6.15;;;2.60;;
79338;SDS011;74181;41.704;44.786;2024-02-21T01:46:10;8.13;;;2.90;;
79338;SDS011;74181;41.704;44.786;2024-02-21T01:48:37;8.63;;;3.10;;
79338;SDS011;74181;41.704;44.786;2024-02-21T01:51:03;8.88;;;3.83;;
79338;SDS011;74181;41.704;44.786;2024-02-21T01:53:32;14.13;;;4.30;;
79338;SDS011;74181;41.704;44.786;2024-02-21T01:56:02;12.95;;;5.22;;
79338;SDS011;74181;41.704;44.786;2024-02-21T01:58:31;14.10;;;6.47;;
79338;SDS011;74181;41.704;44.786;2024-02-21T02:00:59;14.02;;;6.07;;
79338;SDS011;74181;41.704;44.786;2024-02-21T02:03:25;18.23;;;6.53;;
79338;SDS011;74181;41.704;44.786;2024-02-21T02:05:52;14.10;;;6.15;;
79338;SDS011;74181;41.704;44.786;2024-02-21T02:08:19;17.60;;;7.30;;
79338;SDS011;74181;41.704;44.786;2024-02-21T02:10:45;18.73;;;7.70;;
79338;SDS011;74181;41.704;44.786;2024-02-21T02:13:12;26.33;;;8.80;;
79338;SDS011;74181;41.704;44.786;2024-02-21T02:18:08;19.83;;;7.93;;
79338;SDS011;74181;41.704;44.786;2024-02-21T02:20:35;17.48;;;7.72;;
79338;SDS011;74181;41.704;44.786;2024-02-21T02:23:09;19.90;;;8.97;;
79338;SDS011;74181;41.704;44.786;2024-02-21T02:25:37;19.25;;;7.85;;
79338;SDS011;74181;41.704;44.786;2024-02-21T02:28:04;20.08;;;8.25;;
79338;SDS011;74181;41.704;44.786;2024-02-21T02:30:35;23.85;;;8.68;;
79338;SDS011;74181;41.704;44.786;2024-02-21T02:33:02;20.52;;;8.65;;
79338;SDS011;74181;41.704;44.786;2024-02-21T02:35:29;19.10;;;8.40;;
79338;SDS011;74181;41.704;44.786;2024-02-21T02:37:55;22.50;;;8.93;;
79338;SDS011;74181;41.704;44.786;2024-02-21T02:40:21;23.08;;;9.23;;
79338;SDS011;74181;41.704;44.786;2024-02-21T02:42:48;18.73;;;8.77;;
79338;SDS011;74181;41.704;44.786;2024-02-21T02:45:15;22.15;;;9.15;;
79338;SDS011;74181;41.704;44.786;2024-02-21T02:47:41;22.50;;;9.33;;
79338;SDS011;74181;41.704;44.786;2024-02-21T02:50:08;26.92;;;9.30;;
79338;SDS011;74181;41.704;44.786;2024-02-21T02:52:35;26.35;;;10.00;;
79338;SDS011;74181;41.704;44.786;2024-02-21T02:55:01;26.50;;;10.18;;
79338;SDS011;74181;41.704;44.786;2024-02-21T02:57:29;27.00;;;10.77;;
79338;SDS011;74181;41.704;44.786;2024-02-21T02:59:55;31.27;;;11.37;;
79338;SDS011;74181;41.704;44.786;2024-02-21T03:02:21;31.70;;;11.50;;
79338;SDS011;74181;41.704;44.786;2024-02-21T03:04:48;27.52;;;11.65;;
79338;SDS011;74181;41.704;44.786;2024-02-21T03:07:14;31.95;;;11.77;;
79338;SDS011;74181;41.704;44.786;2024-02-21T03:09:41;32.80;;;11.50;;
79338;SDS011;74181;41.704;44.786;2024-02-21T03:12:10;30.07;;;11.63;;
79338;SDS011;74181;41.704;44.786;2024-02-21T03:14:37;31.90;;;12.57;;
79338;SDS011;74181;41.704;44.786;2024-02-21T03:17:03;34.58;;;12.90;;
79338;SDS011;74181;41.704;44.786;2024-02-21T03:19:30;29.65;;;12.27;;
79338;SDS011;74181;41.704;44.786;2024-02-21T03:21:56;30.85;;;12.98;;
79338;SDS011;74181;41.704;44.786;2024-02-21T03:24:22;30.63;;;12.53;;
79338;SDS011;74181;41.704;44.786;2024-02-21T03:26:48;36.63;;;13.50;;
79338;SDS011;74181;41.704;44.786;2024-02-21T03:29:16;34.78;;;13.75;;
79338;SDS011;74181;41.704;44.786;2024-02-21T03:31:42;40.40;;;12.98;;
79338;SDS011;74181;41.704;44.786;2024-02-21T03:34:12;36.88;;;12.82;;
79338;SDS011;74181;41.704;44.786;2024-02-21T03:36:38;34.93;;;13.43;;
79338;SDS011;74181;41.704;44.786;2024-02-21T03:39:04;32.70;;;13.15;;
79338;SDS011;74181;41.704;44.786;2024-02-21T03:41:30;37.33;;;13.52;;
79338;SDS011;74181;41.704;44.786;2024-02-21T03:43:57;32.30;;;13.02;;
79338;SDS011;74181;41.704;44.786;2024-02-21T03:46:23;35.42;;;13.10;;
79338;SDS011;74181;41.704;44.786;2024-02-21T03:48:50;35.57;;;13.10;;
79338;SDS011;74181;41.704;44.786;2024-02-21T03:51:17;33.97;;;13.73;;
79338;SDS011;74181;41.704;44.786;2024-02-21T03:53:43;38.63;;;14.13;;
79338;SDS011;74181;41.704;44.786;2024-02-21T03:56:09;36.97;;;15.05;;
79338;SDS011;74181;41.704;44.786;2024-02-21T03:58:35;38.85;;;13.93;;
79338;SDS011;74181;41.704;44.786;2024-02-21T04:01:03;36.33;;;13.67;;
79338;SDS011;74181;41.704;44.786;2024-02-21T04:03:30;40.45;;;14.65;;
79338;SDS011;74181;41.704;44.786;2024-02-21T04:05:56;45.03;;;16.02;;
79338;SDS011;74181;41.704;44.786;2024-02-21T04:08:22;36.20;;;14.38;;
79338;SDS011;74181;41.704;44.786;2024-02-21T04:10:49;37.53;;;14.43;;
79338;SDS011;74181;41.704;44.786;2024-02-21T04:13:15;36.40;;;13.03;;
79338;SDS011;74181;41.704;44.786;2024-02-21T04:15:41;37.10;;;13.73;;
79338;SDS011;74181;41.704;44.786;2024-02-21T04:18:07;35.58;;;13.93;;
79338;SDS011;74181;41.704;44.786;2024-02-21T04:20:34;39.75;;;14.20;;
79338;SDS011;74181;41.704;44.786;2024-02-21T04:23:01;40.65;;;14.27;;
79338;SDS011;74181;41.704;44.786;2024-02-21T04:25:27;37.00;;;13.07;;
79338;SDS011;74181;41.704;44.786;2024-02-21T04:27:53;34.33;;;14.55;;
79338;SDS011;74181;41.704;44.786;2024-02-21T04:30:19;39.33;;;13.65;;
79338;SDS011;74181;41.704;44.786;2024-02-21T04:32:45;38.63;;;14.23;;
79338;SDS011;74181;41.704;44.786;2024-02-21T04:35:11;40.28;;;13.88;;
79338;SDS011;74181;41.704;44.786;2024-02-21T04:37:38;38.40;;;14.03;;
79338;SDS011;74181;41.704;44.786;2024-02-21T04:40:04;33.08;;;14.23;;
79338;SDS011;74181;41.704;44.786;2024-02-21T04:42:30;40.33;;;14.27;;
79338;SDS011;74181;41.704;44.786;2024-02-21T04:44:57;36.80;;;14.05;;
79338;SDS011;74181;41.704;44.786;2024-02-21T04:47:23;38.40;;;14.35;;
79338;SDS011;74181;41.704;44.786;2024-02-21T04:49:52;38.27;;;13.90;;
79338;SDS011;74181;41.704;44.786;2024-02-21T04:52:18;36.35;;;13.48;;
79338;SDS011;74181;41.704;44.786;2024-02-21T04:54:44;33.72;;;13.85;;
79338;SDS011;74181;41.704;44.786;2024-02-21T04:57:10;37.38;;;14.05;;
79338;SDS011;74181;41.704;44.786;2024-02-21T04:59:36;35.92;;;13.80;;
79338;SDS011;74181;41.704;44.786;2024-02-21T05:02:02;29.03;;;13.10;;
79338;SDS011;74181;41.704;44.786;2024-02-21T05:04:29;31.80;;;12.93;;
79338;SDS011;74181;41.704;44.786;2024-02-21T05:06:55;39.13;;;13.45;;
79338;SDS011;74181;41.704;44.786;2024-02-21T05:09:21;39.70;;;13.70;;
79338;SDS011;74181;41.704;44.786;2024-02-21T05:11:47;36.13;;;13.70;;
79338;SDS011;74181;41.704;44.786;2024-02-21T05:14:13;39.33;;;13.53;;
79338;SDS011;74181;41.704;44.786;2024-02-21T05:16:40;37.22;;;13.45;;
79338;SDS011;74181;41.704;44.786;2024-02-21T05:19:06;33.45;;;12.52;;
79338;SDS011;74181;41.704;44.786;2024-02-21T05:21:32;38.17;;;13.23;;
79338;SDS011;74181;41.704;44.786;2024-02-21T05:23:58;38.03;;;14.70;;
79338;SDS011;74181;41.704;44.786;2024-02-21T05:26:25;34.13;;;13.40;;
79338;SDS011;74181;41.704;44.786;2024-02-21T05:28:53;35.58;;;13.82;;
79338;SDS011;74181;41.704;44.786;2024-02-21T05:31:19;41.17;;;13.45;;
79338;SDS011;74181;41.704;44.786;2024-02-21T05:33:46;36.40;;;13.95;;
79338;SDS011;74181;41.704;44.786;2024-02-21T05:36:13;40.30;;;13.80;;
79338;SDS011;74181;41.704;44.786;2024-02-21T05:38:39;47.77;;;13.80;;
79338;SDS011;74181;41.704;44.786;2024-02-21T05:41:06;34.65;;;13.95;;
79338;SDS011;74181;41.704;44.786;2024-02-21T05:43:32;36.55;;;14.20;;
79338;SDS011;74181;41.704;44.786;2024-02-21T05:45:58;43.13;;;15.15;;
79338;SDS011;74181;41.704;44.786;2024-02-21T05:48:25;39.72;;;15.57;;
79338;SDS011;74181;41.704;44.786;2024-02-21T05:50:51;40.73;;;14.60;;
79338;SDS011;74181;41.704;44.786;2024-02-21T05:53:17;38.53;;;13.73;;
79338;SDS011;74181;41.704;44.786;2024-02-21T05:55:43;43.20;;;14.52;;
79338;SDS011;74181;41.704;44.786;2024-02-21T05:58:10;37.95;;;14.48;;
79338;SDS011;74181;41.704;44.786;2024-02-21T06:00:39;40.50;;;15.15;;
79338;SDS011;74181;41.704;44.786;2024-02-21T06:03:06;45.50;;;15.33;;
79338;SDS011;74181;41.704;44.786;2024-02-21T06:05:36;35.95;;;15.05;;
79338;SDS011;74181;41.704;44.786;2024-02-21T06:08:04;41.28;;;15.32;;
79338;SDS011;74181;41.704;44.786;2024-02-21T06:10:30;38.80;;;15.40;;
79338;SDS011;74181;41.704;44.786;2024-02-21T06:12:57;39.47;;;16.73;;
79338;SDS011;74181;41.704;44.786;2024-02-21T06:15:23;42.17;;;15.83;;
79338;SDS011;74181;41.704;44.786;2024-02-21T06:17:49;41.08;;;16.98;;
79338;SDS011;74181;41.704;44.786;2024-02-21T06:20:21;38.28;;;15.88;;
79338;SDS011;74181;41.704;44.786;2024-02-21T06:22:47;42.88;;;15.90;;
79338;SDS011;74181;41.704;44.786;2024-02-21T06:25:13;41.10;;;15.43;;
79338;SDS011;74181;41.704;44.786;2024-02-21T06:27:39;35.47;;;15.13;;
79338;SDS011;74181;41.704;44.786;2024-02-21T06:30:06;42.28;;;16.00;;
79338;SDS011;74181;41.704;44.786;2024-02-21T06:32:32;49.83;;;18.80;;
79338;SDS011;74181;41.704;44.786;2024-02-21T06:34:58;45.97;;;18.52;;
79338;SDS011;74181;41.704;44.786;2024-02-21T06:37:29;51.42;;;17.75;;
79338;SDS011;74181;41.704;44.786;2024-02-21T06:39:58;45.07;;;16.97;;
79338;SDS011;74181;41.704;44.786;2024-02-21T06:42:24;44.97;;;19.00;;
79338;SDS011;74181;41.704;44.786;2024-02-21T06:44:51;46.80;;;17.95;;
79338;SDS011;74181;41.704;44.786;2024-02-21T06:47:17;38.50;;;17.38;;
79338;SDS011;74181;41.704;44.786;2024-02-21T06:49:48;39.65;;;16.70;;
79338;SDS011;74181;41.704;44.786;2024-02-21T06:52:15;39.20;;;16.17;;
79338;SDS011;74181;41.704;44.786;2024-02-21T06:54:42;44.15;;;17.25;;
79338;SDS011;74181;41.704;44.786;2024-02-21T06:57:09;37.22;;;16.55;;
79338;SDS011;74181;41.704;44.786;2024-02-21T06:59:35;40.00;;;17.80;;
79338;SDS011;74181;41.704;44.786;2024-02-21T07:02:01;45.15;;;17.17;;
79338;SDS011;74181;41.704;44.786;2024-02-21T07:04:27;45.40;;;16.70;;
79338;SDS011;74181;41.704;44.786;2024-02-21T07:06:54;40.47;;;15.88;;
79338;SDS011;74181;41.704;44.786;2024-02-21T07:09:21;39.15;;;15.75;;
79338;SDS011;74181;41.704;44.786;2024-02-21T07:11:47;36.72;;;15.80;;
79338;SDS011;74181;41.704;44.786;2024-02-21T07:14:17;41.88;;;16.15;;
79338;SDS011;74181;41.704;44.786;2024-02-21T07:16:44;36.67;;;15.67;;
79338;SDS011;74181;41.704;44.786;2024-02-21T07:19:10;39.08;;;16.23;;
79338;SDS011;74181;41.704;44.786;2024-02-21T07:21:36;37.03;;;15.25;;
79338;SDS011;74181;41.704;44.786;2024-02-21T07:24:08;37.17;;;15.25;;
79338;SDS011;74181;41.704;44.786;2024-02-21T07:26:34;33.47;;;15.55;;
79338;SDS011;74181;41.704;44.786;2024-02-21T07:29:01;38.87;;;15.17;;
79338;SDS011;74181;41.704;44.786;2024-02-21T07:31:27;40.22;;;16.00;;
79338;SDS011;74181;41.704;44.786;2024-02-21T07:33:53;41.13;;;16.48;;
79338;SDS011;74181;41.704;44.786;2024-02-21T07:36:29;36.17;;;15.63;;
79338;SDS011;74181;41.704;44.786;2024-02-21T07:38:58;40.35;;;15.25;;
79338;SDS011;74181;41.704;44.786;2024-02-21T07:41:25;34.77;;;15.33;;
79338;SDS011;74181;41.704;44.786;2024-02-21T07:43:51;34.47;;;16.33;;
79338;SDS011;74181;41.704;44.786;2024-02-21T07:46:18;38.78;;;15.55;;
79338;SDS011;74181;41.704;44.786;2024-02-21T07:48:47;37.22;;;15.57;;
79338;SDS011;74181;41.704;44.786;2024-02-21T07:51:14;45.92;;;16.27;;
79338;SDS011;74181;41.704;44.786;2024-02-21T07:53:42;43.57;;;17.40;;
79338;SDS011;74181;41.704;44.786;2024-02-21T07:56:11;43.72;;;16.88;;
79338;SDS011;74181;41.704;44.786;2024-02-21T07:58:38;43.88;;;18.50;;
79338;SDS011;74181;41.704;44.786;2024-02-21T08:01:04;39.08;;;16.17;;
79338;SDS011;74181;41.704;44.786;2024-02-21T08:03:30;38.45;;;15.82;;
79338;SDS011;74181;41.704;44.786;2024-02-21T08:05:56;40.00;;;15.20;;
79338;SDS011;74181;41.704;44.786;2024-02-21T08:08:23;35.10;;;15.60;;
79338;SDS011;74181;41.704;44.786;2024-02-21T08:10:50;37.75;;;14.93;;
79338;SDS011;74181;41.704;44.786;2024-02-21T08:13:17;37.90;;;15.82;;
79338;SDS011;74181;41.704;44.786;2024-02-21T08:15:43;44.05;;;15.85;;
79338;SDS011;74181;41.704;44.786;2024-02-21T08:18:09;40.20;;;15.30;;
79338;SDS011;74181;41.704;44.786;2024-02-21T08:20:35;34.13;;;15.45;;
79338;SDS011;74181;41.704;44.786;2024-02-21T08:23:02;35.17;;;14.95;;
79338;SDS011;74181;41.704;44.786;2024-02-21T08:25:28;37.90;;;14.95;;
79338;SDS011;74181;41.704;44.786;2024-02-21T08:27:56;36.92;;;14.43;;
79338;SDS011;74181;41.704;44.786;2024-02-21T08:30:23;39.53;;;14.63;;
79338;SDS011;74181;41.704;44.786;2024-02-21T08:32:50;33.92;;;14.05;;
79338;SDS011;74181;41.704;44.786;2024-02-21T08:35:16;36.63;;;14.30;;
79338;SDS011;74181;41.704;44.786;2024-02-21T08:37:45;32.00;;;13.50;;
79338;SDS011;74181;41.704;44.786;2024-02-21T08:40:13;36.67;;;15.20;;
79338;SDS011;74181;41.704;44.786;2024-02-21T08:42:44;31.10;;;14.07;;
79338;SDS011;74181;41.704;44.786;2024-02-21T08:45:11;30.17;;;14.10;;
79338;SDS011;74181;41.704;44.786;2024-02-21T08:47:40;33.70;;;13.95;;
79338;SDS011;74181;41.704;44.786;2024-02-21T08:50:06;30.92;;;13.45;;
79338;SDS011;74181;41.704;44.786;2024-02-21T08:52:33;38.92;;;13.98;;
79338;SDS011;74181;41.704;44.786;2024-02-21T08:54:59;31.50;;;13.40;;
79338;SDS011;74181;41.704;44.786;2024-02-21T08:57:25;30.48;;;13.25;;
79338;SDS011;74181;41.704;44.786;2024-02-21T08:59:52;26.85;;;11.88;;
79338;SDS011;74181;41.704;44.786;2024-02-21T09:02:18;31.30;;;12.82;;
79338;SDS011;74181;41.704;44.786;2024-02-21T09:04:44;29.92;;;13.13;;
79338;SDS011;74181;41.704;44.786;2024-02-21T09:07:11;32.03;;;13.17;;
79338;SDS011;74181;41.704;44.786;2024-02-21T09:09:37;28.83;;;12.75;;
79338;SDS011;74181;41.704;44.786;2024-02-21T09:12:06;29.88;;;13.13;;
79338;SDS011;74181;41.704;44.786;2024-02-21T09:14:33;33.25;;;13.70;;
79338;SDS011;74181;41.704;44.786;2024-02-21T09:17:00;30.33;;;13.18;;
79338;SDS011;74181;41.704;44.786;2024-02-21T09:19:26;30.77;;;12.97;;
79338;SDS011;74181;41.704;44.786;2024-02-21T09:21:52;30.45;;;11.85;;
79338;SDS011;74181;41.704;44.786;2024-02-21T09:24:19;29.73;;;12.18;;
79338;SDS011;74181;41.704;44.786;2024-02-21T09:26:45;29.73;;;12.25;;
79338;SDS011;74181;41.704;44.786;2024-02-21T09:29:11;30.27;;;12.65;;
79338;SDS011;74181;41.704;44.786;2024-02-21T09:31:38;27.37;;;11.60;;
79338;SDS011;74181;41.704;44.786;2024-02-21T09:34:04;29.23;;;12.43;;
79338;SDS011;74181;41.704;44.786;2024-02-21T09:36:31;25.58;;;12.05;;
79338;SDS011;74181;41.704;44.786;2024-02-21T09:38:57;26.60;;;10.98;;
79338;SDS011;74181;41.704;44.786;2024-02-21T09:41:27;25.77;;;11.02;;
79338;SDS011;74181;41.704;44.786;2024-02-21T09:43:53;32.27;;;11.47;;
79338;SDS011;74181;41.704;44.786;2024-02-21T09:46:30;34.17;;;11.45;;
79338;SDS011;74181;41.704;44.786;2024-02-21T09:49:21;27.75;;;11.75;;
79338;SDS011;74181;41.704;44.786;2024-02-21T09:52:02;29.90;;;11.75;;
79338;SDS011;74181;41.704;44.786;2024-02-21T09:54:30;27.80;;;11.98;;
79338;SDS011;74181;41.704;44.786;2024-02-21T09:56:59;31.27;;;12.43;;
79338;SDS011;74181;41.704;44.786;2024-02-21T09:59:27;29.63;;;11.45;;
79338;SDS011;74181;41.704;44.786;2024-02-21T10:01:54;25.90;;;11.23;;
79338;SDS011;74181;41.704;44.786;2024-02-21T10:04:21;24.65;;;10.50;;
79338;SDS011;74181;41.704;44.786;2024-02-21T10:06:51;27.05;;;12.13;;
79338;SDS011;74181;41.704;44.786;2024-02-21T10:09:23;24.87;;;10.53;;
79338;SDS011;74181;41.704;44.786;2024-02-21T10:11:53;27.42;;;11.82;;
79338;SDS011;74181;41.704;44.786;2024-02-21T10:14:20;27.17;;;11.15;;
79338;SDS011;74181;41.704;44.786;2024-02-21T10:16:56;29.88;;;13.13;;
79338;SDS011;74181;41.704;44.786;2024-02-21T10:19:26;28.10;;;12.70;;
79338;SDS011;74181;41.704;44.786;2024-02-21T10:22:03;29.07;;;12.70;;
79338;SDS011;74181;41.704;44.786;2024-02-21T10:24:31;24.30;;;10.23;;
79338;SDS011;74181;41.704;44.786;2024-02-21T10:27:02;24.77;;;11.27;;
79338;SDS011;74181;41.704;44.786;2024-02-21T10:29:34;22.33;;;9.55;;
79338;SDS011;74181;41.704;44.786;2024-02-21T10:32:10;26.27;;;11.32;;
79338;SDS011;74181;41.704;44.786;2024-02-21T10:34:38;27.77;;;11.87;;
79338;SDS011;74181;41.704;44.786;2024-02-21T10:37:06;29.38;;;11.57;;
79338;SDS011;74181;41.704;44.786;2024-02-21T10:39:37;25.77;;;11.10;;
79338;SDS011;74181;41.704;44.786;2024-02-21T10:42:10;27.08;;;11.77;;
79338;SDS011;74181;41.704;44.786;2024-02-21T10:44:38;25.92;;;10.95;;
79338;SDS011;74181;41.704;44.786;2024-02-21T10:47:07;26.80;;;9.80;;
79338;SDS011;74181;41.704;44.786;2024-02-21T10:49:37;32.65;;;13.93;;
79338;SDS011;74181;41.704;44.786;2024-02-21T10:52:17;28.88;;;10.45;;
79338;SDS011;74181;41.704;44.786;2024-02-21T10:55:04;23.60;;;10.23;;
79338;SDS011;74181;41.704;44.786;2024-02-21T10:57:34;24.25;;;9.50;;
79338;SDS011;74181;41.704;44.786;2024-02-21T11:00:00;24.43;;;10.40;;
79338;SDS011;74181;41.704;44.786;2024-02-21T11:02:29;22.33;;;9.32;;
79338;SDS011;74181;41.704;44.786;2024-02-21T11:04:56;26.50;;;9.70;;
79338;SDS011;74181;41.704;44.786;2024-02-21T11:07:23;23.05;;;10.18;;
79338;SDS011;74181;41.704;44.786;2024-02-21T11:09:53;23.10;;;10.20;;
79338;SDS011;74181;41.704;44.786;2024-02-21T11:12:22;30.17;;;13.40;;
79338;SDS011;74181;41.704;44.786;2024-02-21T11:14:49;27.50;;;10.98;;
79338;SDS011;74181;41.704;44.786;2024-02-21T11:17:15;23.38;;;10.23;;
79338;SDS011;74181;41.704;44.786;2024-02-21T11:19:42;25.17;;;10.45;;
79338;SDS011;74181;41.704;44.786;2024-02-21T11:22:17;21.17;;;9.55;;
79338;SDS011;74181;41.704;44.786;2024-02-21T11:24:45;20.90;;;9.43;;
79338;SDS011;74181;41.704;44.786;2024-02-21T11:27:12;22.10;;;9.77;;
79338;SDS011;74181;41.704;44.786;2024-02-21T11:29:43;19.33;;;9.05;;
79338;SDS011;74181;41.704;44.786;2024-02-21T11:32:16;24.13;;;10.60;;
79338;SDS011;74181;41.704;44.786;2024-02-21T11:34:54;24.40;;;12.23;;
79338;SDS011;74181;41.704;44.786;2024-02-21T11:37:21;23.30;;;9.50;;
79338;SDS011;74181;41.704;44.786;2024-02-21T11:39:50;19.38;;;9.13;;
79338;SDS011;74181;41.704;44.786;2024-02-21T11:42:18;18.10;;;8.88;;
79338;SDS011;74181;41.704;44.786;2024-02-21T11:44:45;23.52;;;10.05;;
79338;SDS011;74181;41.704;44.786;2024-02-21T11:47:13;25.55;;;10.18;;
79338;SDS011;74181;41.704;44.786;2024-02-21T11:49:46;18.60;;;9.17;;
79338;SDS011;74181;41.704;44.786;2024-02-21T11:52:15;22.40;;;9.05;;
79338;SDS011;74181;41.704;44.786;2024-02-21T11:54:44;22.55;;;10.20;;
79338;SDS011;74181;41.704;44.786;2024-02-21T11:57:10;22.60;;;9.35;;
79338;SDS011;74181;41.704;44.786;2024-02-21T11:59:37;23.45;;;9.40;;
79338;SDS011;74181;41.704;44.786;2024-02-21T12:02:05;24.93;;;10.73;;
79338;SDS011;74181;41.704;44.786;2024-02-21T12:04:31;22.40;;;9.90;;
79338;SDS011;74181;41.704;44.786;2024-02-21T12:06:58;21.20;;;9.55;;
79338;SDS011;74181;41.704;44.786;2024-02-21T12:09:24;20.15;;;9.65;;
79338;SDS011;74181;41.704;44.786;2024-02-21T12:11:58;25.23;;;10.05;;
79338;SDS011;74181;41.704;44.786;2024-02-21T12:14:25;24.80;;;10.83;;
79338;SDS011;74181;41.704;44.786;2024-02-21T12:16:51;28.48;;;11.20;;
79338;SDS011;74181;41.704;44.786;2024-02-21T12:19:18;23.92;;;10.63;;
79338;SDS011;74181;41.704;44.786;2024-02-21T12:21:44;24.90;;;10.73;;
79338;SDS011;74181;41.704;44.786;2024-02-21T12:26:40;29.47;;;10.57;;
79338;SDS011;74181;41.704;44.786;2024-02-21T12:29:07;27.50;;;12.70;;
79338;SDS011;74181;41.704;44.786;2024-02-21T12:31:37;33.55;;;17.17;;
79338;SDS011;74181;41.704;44.786;2024-02-21T12:34:03;24.60;;;11.75;;
79338;SDS011;74181;41.704;44.786;2024-02-21T12:36:33;22.17;;;9.88;;
79338;SDS011;74181;41.704;44.786;2024-02-21T12:38:59;21.57;;;10.00;;
79338;SDS011;74181;41.704;44.786;2024-02-21T12:41:28;24.83;;;9.93;;
79338;SDS011;74181;41.704;44.786;2024-02-21T12:43:55;27.27;;;11.63;;
79338;SDS011;74181;41.704;44.786;2024-02-21T12:46:22;33.55;;;12.50;;
79338;SDS011;74181;41.704;44.786;2024-02-21T12:48:48;24.92;;;10.75;;
79338;SDS011;74181;41.704;44.786;2024-02-21T12:51:14;22.23;;;9.47;;
79338;SDS011;74181;41.704;44.786;2024-02-21T12:53:41;22.48;;;9.90;;
79338;SDS011;74181;41.704;44.786;2024-02-21T12:56:07;27.30;;;11.40;;
79338;SDS011;74181;41.704;44.786;2024-02-21T12:58:34;35.55;;;11.63;;
79338;SDS011;74181;41.704;44.786;2024-02-21T13:01:00;23.80;;;10.77;;
79338;SDS011;74181;41.704;44.786;2024-02-21T13:03:26;25.10;;;10.83;;
79338;SDS011;74181;41.704;44.786;2024-02-21T13:05:52;21.35;;;9.57;;
79338;SDS011;74181;41.704;44.786;2024-02-21T13:08:18;29.90;;;10.60;;
79338;SDS011;74181;41.704;44.786;2024-02-21T13:10:47;25.60;;;10.60;;
79338;SDS011;74181;41.704;44.786;2024-02-21T13:13:14;24.67;;;10.57;;
79338;SDS011;74181;41.704;44.786;2024-02-21T13:15:44;23.37;;;10.67;;
79338;SDS011;74181;41.704;44.786;2024-02-21T13:18:10;27.52;;;10.80;;
79338;SDS011;74181;41.704;44.786;2024-02-21T13:20:36;24.23;;;10.60;;
79338;SDS011;74181;41.704;44.786;2024-02-21T13:23:03;26.98;;;10.70;;
79338;SDS011;74181;41.704;44.786;2024-02-21T13:25:29;25.35;;;11.05;;
79338;SDS011;74181;41.704;44.786;2024-02-21T13:27:56;24.80;;;10.73;;
79338;SDS011;74181;41.704;44.786;2024-02-21T13:30:22;30.60;;;10.85;;
79338;SDS011;74181;41.704;44.786;2024-02-21T13:32:48;23.90;;;10.30;;
79338;SDS011;74181;41.704;44.786;2024-02-21T13:35:14;25.65;;;10.70;;
79338;SDS011;74181;41.704;44.786;2024-02-21T13:37:41;26.58;;;11.32;;
79338;SDS011;74181;41.704;44.786;2024-02-21T13:40:08;30.07;;;11.60;;
79338;SDS011;74181;41.704;44.786;2024-02-21T13:42:39;26.15;;;11.05;;
79338;SDS011;74181;41.704;44.786;2024-02-21T13:45:06;29.52;;;12.07;;
79338;SDS011;74181;41.704;44.786;2024-02-21T13:47:32;24.73;;;10.40;;
79338;SDS011;74181;41.704;44.786;2024-02-21T13:49:59;27.08;;;10.73;;
79338;SDS011;74181;41.704;44.786;2024-02-21T13:52:25;26.53;;;11.10;;
79338;SDS011;74181;41.704;44.786;2024-02-21T13:54:52;34.00;;;12.85;;
79338;SDS011;74181;41.704;44.786;2024-02-21T13:57:18;24.40;;;11.18;;
79338;SDS011;74181;41.704;44.786;2024-02-21T13:59:44;30.75;;;11.90;;
79338;SDS011;74181;41.704;44.786;2024-02-21T14:02:11;29.10;;;10.80;;
79338;SDS011;74181;41.704;44.786;2024-02-21T14:04:38;24.07;;;10.33;;
79338;SDS011;74181;41.704;44.786;2024-02-21T14:07:04;24.63;;;10.50;;
79338;SDS011;74181;41.704;44.786;2024-02-21T14:09:31;24.52;;;10.57;;
79338;SDS011;74181;41.704;44.786;2024-02-21T14:11:58;25.13;;;10.05;;
79338;SDS011;74181;41.704;44.786;2024-02-21T14:14:25;21.15;;;9.15;;
79338;SDS011;74181;41.704;44.786;2024-02-21T14:16:51;22.20;;;8.73;;
79338;SDS011;74181;41.704;44.786;2024-02-21T14:19:17;26.95;;;9.98;;